Time;durP1;ratioP1;P1;durP2;ratioP2;P2;SDS_P1;SDS_P2;PMS_P1;PMS_P2;Temp;Humidity;BMP_temperature;BMP_pressure;BME280_temperature;BME280_humidity;BME280_pressure;Samples;Min_cycle;Max_cycle;Signal;HPM_P1;HPM_P2
2022/01/28 00:04:51;;;;;;;;;50.50;41.25;;;;;;;;5115419;27;45315;-67
2022/01/28 00:07:17;;;;;;;;;43.75;36.50;;;;;;;;5114755;27;45413;-67
2022/01/28 00:09:42;;;;;;;;;45.75;38.75;;;;;;;;5115440;27;45352;-68
2022/01/28 00:12:08;;;;;;;;;42.50;36.50;;;;;;;;5115322;27;45313;-68
2022/01/28 00:38:53;;;;;;;;;41.75;38.00;;;;;;;;5072115;28;45469;-68
2022/01/28 00:41:19;;;;;;;;;50.50;37.75;;;;;;;;5071201;28;45549;-67
2022/01/28 00:43:44;;;;;;;;;44.50;37.25;;;;;;;;5068023;28;45457;-67
2022/01/28 00:46:10;;;;;;;;;45.00;37.00;;;;;;;;5063752;27;45527;-67
2022/01/28 00:48:35;;;;;;;;;41.25;38.25;;;;;;;;5060975;28;45936;-66
2022/01/28 00:51:00;;;;;;;;;48.50;40.50;;;;;;;;5058877;28;45940;-67
2022/01/28 00:53:26;;;;;;;;;51.75;39.75;;;;;;;;5062766;28;45444;-66
2022/01/28 00:55:54;;;;;;;;;41.00;36.50;;;;;;;;5063538;27;45539;-67
2022/01/28 00:58:19;;;;;;;;;51.00;42.75;;;;;;;;5063127;28;46031;-67
2022/01/28 01:00:44;;;;;;;;;46.50;38.00;;;;;;;;5104566;27;45337;-67
2022/01/28 01:03:09;;;;;;;;;40.25;35.00;;;;;;;;5117920;27;45617;-67
2022/01/28 01:05:34;;;;;;;;;39.00;35.50;;;;;;;;5104644;27;45596;-67
2022/01/28 01:08:00;;;;;;;;;39.00;35.25;;;;;;;;5106278;27;45391;-67
2022/01/28 01:10:27;;;;;;;;;42.75;32.75;;;;;;;;5106598;27;45475;-67
2022/01/28 01:12:52;;;;;;;;;47.00;35.00;;;;;;;;5106492;27;45330;-66
2022/01/28 01:15:22;;;;;;;;;48.25;38.00;;;;;;;;5101750;27;45522;-67
2022/01/28 01:18:40;;;;;;;;;45.50;39.00;;;;;;;;5114124;27;45431;-66
2022/01/28 01:20:52;;;;;;;;;39.50;32.75;;;;;;;;5107742;27;45706;-67
2022/01/28 01:23:27;;;;;;;;;40.25;32.75;;;;;;;;5118166;27;45502;-67
2022/01/28 01:28:21;;;;;;;;;38.50;32.00;;;;;;;;5106280;27;45354;-67
2022/01/28 01:30:46;;;;;;;;;42.00;33.50;;;;;;;;5105349;27;45302;-67
2022/01/28 01:33:12;;;;;;;;;39.50;32.50;;;;;;;;5101318;27;45457;-67
2022/01/28 01:35:38;;;;;;;;;38.50;34.00;;;;;;;;5103689;27;45512;-67
2022/01/28 01:38:03;;;;;;;;;37.25;34.50;;;;;;;;5106101;27;46921;-67
2022/01/28 01:40:39;;;;;;;;;32.00;28.00;;;;;;;;5106006;27;45284;-67
2022/01/28 01:54:03;;;;;;;;;43.75;36.75;;;;;;;;5072152;28;45448;-67
2022/01/28 01:56:29;;;;;;;;;36.50;31.00;;;;;;;;5074492;28;45574;-67
2022/01/28 01:58:55;;;;;;;;;37.50;32.00;;;;;;;;5073778;27;46319;-67
2022/01/28 02:01:20;;;;;;;;;40.00;30.00;;;;;;;;5073245;27;45251;-66
2022/01/28 02:03:45;;;;;;;;;37.50;31.50;;;;;;;;5074036;27;45470;-66
2022/01/28 02:06:11;;;;;;;;;40.25;31.00;;;;;;;;5074221;28;45489;-67
2022/01/28 02:08:36;;;;;;;;;35.50;31.75;;;;;;;;5074585;28;45543;-66
2022/01/28 02:11:02;;;;;;;;;30.25;28.75;;;;;;;;5073924;28;45519;-67
2022/01/28 02:13:28;;;;;;;;;37.25;33.50;;;;;;;;5074120;27;45540;-67
2022/01/28 02:15:54;;;;;;;;;33.75;30.00;;;;;;;;5073810;27;45482;-67
2022/01/28 02:18:20;;;;;;;;;26.00;26.00;;;;;;;;5057889;28;46964;-66
2022/01/28 02:20:49;;;;;;;;;41.50;33.00;;;;;;;;5073860;27;45485;-66
2022/01/28 02:23:14;;;;;;;;;44.50;33.00;;;;;;;;5087749;27;45276;-66
2022/01/28 02:25:39;;;;;;;;;44.25;34.75;;;;;;;;5096521;27;45443;-67
2022/01/28 02:28:07;;;;;;;;;34.50;33.00;;;;;;;;5096087;27;45643;-67
2022/01/28 02:30:33;;;;;;;;;34.50;29.50;;;;;;;;5095706;27;45515;-66
2022/01/28 02:33:10;;;;;;;;;38.00;31.75;;;;;;;;5096632;27;45458;-67
2022/01/28 02:35:35;;;;;;;;;29.75;29.00;;;;;;;;5095514;27;45311;-67
2022/01/28 02:38:01;;;;;;;;;36.50;29.25;;;;;;;;5096193;27;45872;-66
2022/01/28 02:40:26;;;;;;;;;31.00;29.00;;;;;;;;5095859;27;45405;-66
2022/01/28 02:45:26;;;;;;;;;33.25;30.50;;;;;;;;5095531;27;45517;-65
2022/01/28 02:47:57;;;;;;;;;38.50;30.75;;;;;;;;5112917;27;47145;-66
2022/01/28 02:50:23;;;;;;;;;33.50;30.00;;;;;;;;5104660;27;45476;-67
2022/01/28 02:53:02;;;;;;;;;31.25;28.25;;;;;;;;5105171;27;45694;-67
2022/01/28 02:55:28;;;;;;;;;35.50;25.75;;;;;;;;5105013;27;45261;-67
2022/01/28 02:58:04;;;;;;;;;32.50;27.00;;;;;;;;5104756;27;45407;-67
2022/01/28 03:00:29;;;;;;;;;29.00;26.75;;;;;;;;5101159;27;45339;-66
2022/01/28 03:02:54;;;;;;;;;28.25;23.00;;;;;;;;5100013;27;45463;-66
2022/01/28 03:05:31;;;;;;;;;27.25;24.00;;;;;;;;5104770;27;45229;-66
2022/01/28 03:07:56;;;;;;;;;31.75;31.50;;;;;;;;5104598;27;47018;-66
2022/01/28 03:10:29;;;;;;;;;35.75;27.75;;;;;;;;5104777;27;45409;-67
2022/01/28 03:15:33;;;;;;;;;32.25;26.25;;;;;;;;5101286;27;45539;-67
2022/01/28 03:18:41;;;;;;;;;33.25;31.25;;;;;;;;5116141;27;46206;-66
2022/01/28 03:23:18;;;;;;;;;29.25;24.00;;;;;;;;5116222;27;45435;-67
2022/01/28 03:25:44;;;;;;;;;36.25;33.25;;;;;;;;5108773;27;45407;-67
2022/01/28 03:28:10;;;;;;;;;37.25;33.00;;;;;;;;5103446;27;47581;-66
2022/01/28 03:30:36;;;;;;;;;40.25;34.25;;;;;;;;5101622;27;45499;-67
2022/01/28 03:33:01;;;;;;;;;36.00;32.00;;;;;;;;5099409;27;45413;-67
2022/01/28 03:35:26;;;;;;;;;39.75;31.75;;;;;;;;5102997;27;45404;-66
2022/01/28 03:38:00;;;;;;;;;38.50;35.00;;;;;;;;5104024;27;47161;-66
2022/01/28 03:40:25;;;;;;;;;41.75;34.00;;;;;;;;5104045;27;45339;-67
2022/01/28 03:42:50;;;;;;;;;41.25;31.75;;;;;;;;5103811;27;45478;-67
2022/01/28 03:45:16;;;;;;;;;39.00;31.25;;;;;;;;5098784;27;45274;-67
2022/01/28 03:47:41;;;;;;;;;44.50;34.50;;;;;;;;5115974;27;45443;-66
2022/01/28 03:50:07;;;;;;;;;37.00;33.00;;;;;;;;5115376;27;45452;-66
2022/01/28 03:52:32;;;;;;;;;44.75;33.50;;;;;;;;5115232;27;45311;-66
2022/01/28 03:54:57;;;;;;;;;42.50;34.00;;;;;;;;5115139;27;45389;-66
2022/01/28 03:57:22;;;;;;;;;38.75;34.75;;;;;;;;5095231;27;48516;-67
2022/01/28 03:59:47;;;;;;;;;46.00;34.50;;;;;;;;5119522;27;45219;-67
2022/01/28 04:02:13;;;;;;;;;42.50;33.00;;;;;;;;5119165;27;45458;-66
2022/01/28 04:12:45;;;;;;;;;45.50;36.75;;;;;;;;5118803;27;45243;-66
2022/01/28 04:17:48;;;;;;;;;40.75;34.00;;;;;;;;5115030;27;45564;-66
2022/01/28 04:20:13;;;;;;;;;38.00;34.00;;;;;;;;5118722;27;45472;-66
2022/01/28 04:22:38;;;;;;;;;40.75;31.75;;;;;;;;5119157;27;45485;-67
2022/01/28 04:25:04;;;;;;;;;40.25;34.75;;;;;;;;5118374;27;45605;-67
2022/01/28 04:27:29;;;;;;;;;44.50;36.00;;;;;;;;5098107;27;47524;-67
2022/01/28 04:29:54;;;;;;;;;33.50;31.75;;;;;;;;5118871;27;45497;-68
2022/01/28 04:32:20;;;;;;;;;44.75;36.50;;;;;;;;5118993;27;47478;-67
2022/01/28 04:34:46;;;;;;;;;38.50;34.25;;;;;;;;5118271;27;45613;-67
2022/01/28 04:37:24;;;;;;;;;38.25;33.75;;;;;;;;5118222;27;46223;-67
2022/01/28 04:39:55;;;;;;;;;46.00;34.75;;;;;;;;5118073;27;45371;-67
2022/01/28 05:00:31;;;;;;;;;39.75;32.25;;;;;;;;5058220;28;45548;-67
2022/01/28 05:27:09;;;;;;;;;40.50;35.50;;;;;;;;4954710;28;45320;-66
2022/01/28 05:29:35;;;;;;;;;49.75;41.00;;;;;;;;4955018;28;47119;-66
2022/01/28 05:32:01;;;;;;;;;44.00;38.25;;;;;;;;4955582;28;45543;-67
2022/01/28 05:34:27;;;;;;;;;52.50;43.00;;;;;;;;4964870;28;45578;-66
2022/01/28 05:36:53;;;;;;;;;54.00;41.00;;;;;;;;4973955;28;45432;-66
2022/01/28 05:39:19;;;;;;;;;53.75;44.25;;;;;;;;4973604;28;46060;-66
2022/01/28 05:41:44;;;;;;;;;50.25;41.75;;;;;;;;4973859;28;45538;-66
2022/01/28 05:44:09;;;;;;;;;58.25;47.00;;;;;;;;4987668;28;45459;-68
2022/01/28 05:46:34;;;;;;;;;48.00;36.75;;;;;;;;5033028;28;45380;-66
2022/01/28 05:49:00;;;;;;;;;41.00;34.75;;;;;;;;5032591;28;45618;-67
2022/01/28 05:51:25;;;;;;;;;43.50;35.75;;;;;;;;5032297;28;45448;-67
2022/01/28 05:53:50;;;;;;;;;47.00;37.50;;;;;;;;5033267;28;45438;-67
2022/01/28 05:56:16;;;;;;;;;52.25;38.25;;;;;;;;5033387;28;45407;-67
2022/01/28 05:58:41;;;;;;;;;42.50;34.50;;;;;;;;5033198;28;45443;-67
2022/01/28 06:01:06;;;;;;;;;43.75;34.00;;;;;;;;5032488;28;45497;-67
2022/01/28 06:03:31;;;;;;;;;39.75;34.25;;;;;;;;5091467;27;45493;-67
2022/01/28 06:05:57;;;;;;;;;50.75;39.25;;;;;;;;5116436;27;45321;-67
2022/01/28 06:08:22;;;;;;;;;44.75;37.00;;;;;;;;5097435;27;46954;-67
2022/01/28 06:10:47;;;;;;;;;44.25;34.00;;;;;;;;5116171;27;45219;-67
2022/01/28 06:13:12;;;;;;;;;42.50;36.00;;;;;;;;5116490;27;45275;-67
2022/01/28 06:15:41;;;;;;;;;40.50;34.50;;;;;;;;5116389;27;45457;-67
2022/01/28 06:18:07;;;;;;;;;47.50;36.00;;;;;;;;5116289;27;46025;-67
2022/01/28 06:20:32;;;;;;;;;39.25;32.50;;;;;;;;5115611;27;45481;-67
2022/01/28 06:22:57;;;;;;;;;46.50;35.75;;;;;;;;5115596;27;45386;-68
2022/01/28 06:25:23;;;;;;;;;40.50;37.25;;;;;;;;5115699;27;45365;-67
2022/01/28 06:27:48;;;;;;;;;45.25;35.50;;;;;;;;5115189;27;47012;-67
2022/01/28 06:30:16;;;;;;;;;36.50;31.00;;;;;;;;5115381;27;45567;-67
2022/01/28 06:32:41;;;;;;;;;45.50;36.50;;;;;;;;5115992;27;45340;-67
2022/01/28 06:35:09;;;;;;;;;49.75;38.00;;;;;;;;5115544;27;45550;-67
2022/01/28 06:37:36;;;;;;;;;43.75;35.25;;;;;;;;5114934;27;47111;-68
2022/01/28 06:40:01;;;;;;;;;39.75;34.00;;;;;;;;5115102;27;45562;-66
2022/01/28 06:42:26;;;;;;;;;40.75;33.75;;;;;;;;5115627;27;45545;-66
2022/01/28 06:44:51;;;;;;;;;37.25;32.50;;;;;;;;5115347;27;45360;-67
2022/01/28 06:47:17;;;;;;;;;38.00;32.75;;;;;;;;5114883;27;46178;-68
2022/01/28 06:49:42;;;;;;;;;31.75;28.75;;;;;;;;5097081;27;45556;-67
2022/01/28 06:52:07;;;;;;;;;44.25;32.00;;;;;;;;5114551;27;45340;-66
2022/01/28 06:54:32;;;;;;;;;39.50;32.00;;;;;;;;5114847;27;45524;-67
2022/01/28 06:56:58;;;;;;;;;35.00;31.75;;;;;;;;5114857;27;46291;-66
2022/01/28 06:59:23;;;;;;;;;40.25;35.25;;;;;;;;5115127;27;45331;-66
2022/01/28 07:01:48;;;;;;;;;39.50;32.75;;;;;;;;5114602;27;45572;-66
2022/01/28 07:04:14;;;;;;;;;39.00;32.25;;;;;;;;5114029;27;45792;-69
2022/01/28 07:06:39;;;;;;;;;31.75;29.50;;;;;;;;5114217;27;45851;-68
2022/01/28 07:09:06;;;;;;;;;36.25;30.25;;;;;;;;5114676;27;45527;-68
2022/01/28 07:11:31;;;;;;;;;35.25;31.00;;;;;;;;5112665;27;45579;-68
2022/01/28 07:13:56;;;;;;;;;36.25;28.25;;;;;;;;5114362;27;45388;-69
2022/01/28 07:16:22;;;;;;;;;37.25;31.00;;;;;;;;5113430;27;46376;-67
2022/01/28 07:18:47;;;;;;;;;41.00;27.25;;;;;;;;5114242;27;45393;-66
2022/01/28 07:21:12;;;;;;;;;32.50;29.75;;;;;;;;5113506;27;45284;-66
2022/01/28 07:23:37;;;;;;;;;35.25;32.75;;;;;;;;5114163;27;45487;-67
2022/01/28 07:26:02;;;;;;;;;43.25;31.50;;;;;;;;5113673;27;47155;-69
2022/01/28 07:28:28;;;;;;;;;30.00;28.25;;;;;;;;5113547;27;45462;-66
2022/01/28 07:30:53;;;;;;;;;26.00;20.00;;;;;;;;5113666;27;45412;-66
2022/01/28 07:33:18;;;;;;;;;41.75;29.25;;;;;;;;5113266;27;45414;-68
2022/01/28 07:35:43;;;;;;;;;31.50;29.25;;;;;;;;5114781;27;45449;-67
2022/01/28 07:38:10;;;;;;;;;39.00;35.75;;;;;;;;5114075;27;45388;-67
2022/01/28 07:40:35;;;;;;;;;39.25;35.75;;;;;;;;5111209;27;45490;-68
2022/01/28 07:43:00;;;;;;;;;42.50;36.00;;;;;;;;5110983;27;45307;-68
2022/01/28 07:45:25;;;;;;;;;54.50;42.75;;;;;;;;5113837;27;45425;-68
2022/01/28 07:47:51;;;;;;;;;42.75;36.25;;;;;;;;5114007;27;45227;-68
2022/01/28 07:50:16;;;;;;;;;48.50;37.00;;;;;;;;5113977;27;45413;-69
2022/01/28 07:52:41;;;;;;;;;45.75;35.00;;;;;;;;5113634;27;45458;-68
2022/01/28 07:55:09;;;;;;;;;40.25;34.25;;;;;;;;5113344;27;45981;-68
2022/01/28 07:57:35;;;;;;;;;45.25;34.00;;;;;;;;5113720;27;45412;-67
2022/01/28 08:00:00;;;;;;;;;40.50;31.50;;;;;;;;5114135;27;45486;-67
2022/01/28 08:02:27;;;;;;;;;45.25;39.00;;;;;;;;5114000;27;45394;-67
2022/01/28 08:04:52;;;;;;;;;40.25;33.75;;;;;;;;5113102;27;46624;-67
2022/01/28 08:07:18;;;;;;;;;35.00;29.75;;;;;;;;5113429;27;45433;-67
2022/01/28 08:09:43;;;;;;;;;44.75;34.00;;;;;;;;5113603;27;45395;-67
2022/01/28 08:12:08;;;;;;;;;41.25;31.75;;;;;;;;5113170;27;45170;-67
2022/01/28 08:14:33;;;;;;;;;44.25;33.75;;;;;;;;5113414;27;46042;-68
2022/01/28 08:16:59;;;;;;;;;41.00;34.50;;;;;;;;5113227;27;45468;-66
2022/01/28 08:19:24;;;;;;;;;41.75;34.25;;;;;;;;5113475;27;45336;-68
2022/01/28 08:21:49;;;;;;;;;39.00;33.75;;;;;;;;5112987;27;45487;-66
2022/01/28 08:24:14;;;;;;;;;37.75;34.00;;;;;;;;5113090;27;46334;-67
2022/01/28 08:26:40;;;;;;;;;48.25;35.00;;;;;;;;5113823;27;45359;-66
2022/01/28 08:29:06;;;;;;;;;43.50;35.25;;;;;;;;5113332;27;45332;-67
2022/01/28 08:31:31;;;;;;;;;44.50;35.75;;;;;;;;5094885;27;45562;-67
2022/01/28 08:33:56;;;;;;;;;37.25;32.00;;;;;;;;5112499;27;47411;-66
2022/01/28 08:36:22;;;;;;;;;37.75;32.00;;;;;;;;5113493;27;45461;-68
2022/01/28 08:38:49;;;;;;;;;40.25;34.50;;;;;;;;5113424;27;45257;-67
2022/01/28 08:41:15;;;;;;;;;38.25;33.25;;;;;;;;5113211;27;45328;-65
2022/01/28 08:43:40;;;;;;;;;48.25;35.00;;;;;;;;5113490;27;46101;-65
2022/01/28 08:46:06;;;;;;;;;41.50;34.50;;;;;;;;5116225;27;45377;-67
2022/01/28 08:48:31;;;;;;;;;40.75;36.00;;;;;;;;5117142;27;45356;-65
2022/01/28 08:50:57;;;;;;;;;26.00;20.75;;;;;;;;5117702;27;45449;-67
2022/01/28 08:53:22;;;;;;;;;34.75;32.00;;;;;;;;5117931;27;47184;-66
2022/01/28 08:55:47;;;;;;;;;48.25;36.25;;;;;;;;5117768;27;45496;-66
2022/01/28 08:58:13;;;;;;;;;40.00;32.00;;;;;;;;5116654;27;45292;-66
2022/01/28 09:00:39;;;;;;;;;43.50;33.75;;;;;;;;5116806;27;45499;-66
2022/01/28 09:03:04;;;;;;;;;36.25;32.50;;;;;;;;5116902;27;45450;-67
2022/01/28 09:05:30;;;;;;;;;39.50;33.50;;;;;;;;5117405;27;45397;-65
2022/01/28 09:07:56;;;;;;;;;40.50;33.00;;;;;;;;5116536;27;45413;-66
2022/01/28 09:10:29;;;;;;;;;45.50;35.00;;;;;;;;5116632;27;45308;-70
2022/01/28 09:15:32;;;;;;;;;35.00;31.25;;;;;;;;5101239;27;45788;-67
2022/01/28 09:17:57;;;;;;;;;47.50;36.75;;;;;;;;5116525;27;45409;-68
2022/01/28 09:20:22;;;;;;;;;41.25;32.50;;;;;;;;5116154;27;45681;-67
2022/01/28 09:22:48;;;;;;;;;39.75;34.50;;;;;;;;5115633;27;45526;-72
2022/01/28 09:25:13;;;;;;;;;30.00;25.75;;;;;;;;5116262;27;45366;-70
2022/01/28 09:27:38;;;;;;;;;37.25;27.50;;;;;;;;5117006;27;45400;-71
2022/01/28 09:30:04;;;;;;;;;27.50;25.75;;;;;;;;5116607;27;45537;-66
2022/01/28 09:32:29;;;;;;;;;35.00;30.25;;;;;;;;5116241;27;45879;-66
2022/01/28 09:34:54;;;;;;;;;28.00;26.00;;;;;;;;5097252;27;45528;-65
2022/01/28 09:37:19;;;;;;;;;24.75;22.75;;;;;;;;5116660;27;45346;-66
2022/01/28 09:39:46;;;;;;;;;34.75;28.75;;;;;;;;5117065;27;45415;-65
2022/01/28 09:42:14;;;;;;;;;30.50;28.25;;;;;;;;5114855;27;46586;-68
2022/01/28 09:44:40;;;;;;;;;29.25;23.75;;;;;;;;5116088;27;45468;-67
2022/01/28 09:47:05;;;;;;;;;39.75;29.75;;;;;;;;5115352;27;45351;-67
2022/01/28 09:49:31;;;;;;;;;40.50;30.75;;;;;;;;5115477;27;45532;-67
2022/01/28 09:51:56;;;;;;;;;26.50;26.50;;;;;;;;5115500;27;45694;-66
2022/01/28 09:54:22;;;;;;;;;41.50;33.50;;;;;;;;5115860;27;45489;-66
2022/01/28 09:56:47;;;;;;;;;45.50;34.25;;;;;;;;5116540;27;45415;-67
2022/01/28 09:59:12;;;;;;;;;33.00;31.00;;;;;;;;5115225;27;45316;-67
2022/01/28 10:01:50;;;;;;;;;38.25;32.50;;;;;;;;5115396;27;46778;-68
2022/01/28 10:04:17;;;;;;;;;35.75;31.75;;;;;;;;5115786;27;45360;-67
2022/01/28 10:06:43;;;;;;;;;31.25;24.75;;;;;;;;5115401;27;45407;-68
2022/01/28 10:09:09;;;;;;;;;35.75;28.50;;;;;;;;5115005;27;45504;-67
2022/01/28 10:11:36;;;;;;;;;37.50;31.00;;;;;;;;5096190;27;47068;-66
2022/01/28 10:14:08;;;;;;;;;33.50;29.25;;;;;;;;5114859;27;45354;-65
2022/01/28 10:16:33;;;;;;;;;38.00;31.50;;;;;;;;5113013;27;45463;-68
2022/01/28 10:18:59;;;;;;;;;34.50;31.75;;;;;;;;5113366;27;45465;-68
2022/01/28 10:21:24;;;;;;;;;36.00;32.25;;;;;;;;5114276;27;46081;-67
2022/01/28 10:23:58;;;;;;;;;31.75;28.75;;;;;;;;5115018;27;45489;-69
2022/01/28 10:26:27;;;;;;;;;40.25;33.50;;;;;;;;5115708;27;45352;-68
2022/01/28 10:28:52;;;;;;;;;40.50;31.00;;;;;;;;5114472;27;45504;-68
2022/01/28 10:31:18;;;;;;;;;29.00;26.00;;;;;;;;5115324;27;45274;-68
2022/01/28 10:33:43;;;;;;;;;28.25;23.50;;;;;;;;5114681;27;45335;-68
2022/01/28 10:36:08;;;;;;;;;37.25;30.75;;;;;;;;5096305;27;45467;-68
2022/01/28 10:38:34;;;;;;;;;29.00;27.00;;;;;;;;5114855;27;45432;-68
2022/01/28 10:41:16;;;;;;;;;32.00;28.75;;;;;;;;5113656;27;46268;-68
2022/01/28 10:43:52;;;;;;;;;29.25;27.25;;;;;;;;5113858;27;45348;-70
2022/01/28 10:46:22;;;;;;;;;34.50;27.75;;;;;;;;5114291;27;45557;-69
2022/01/28 10:48:54;;;;;;;;;29.75;24.50;;;;;;;;5114634;27;45496;-67
2022/01/28 10:51:21;;;;;;;;;23.50;21.75;;;;;;;;5112697;27;47056;-67
2022/01/28 10:54:06;;;;;;;;;31.00;25.00;;;;;;;;5116021;27;45255;-69
2022/01/28 10:56:44;;;;;;;;;23.00;21.50;;;;;;;;5114857;27;45380;-68
2022/01/28 10:59:10;;;;;;;;;27.75;20.75;;;;;;;;5114599;27;45484;-68
2022/01/28 11:01:35;;;;;;;;;37.50;30.75;;;;;;;;5114622;27;45364;-68
2022/01/28 11:04:01;;;;;;;;;33.50;26.25;;;;;;;;5114969;27;45387;-69
2022/01/28 11:06:26;;;;;;;;;34.25;25.00;;;;;;;;5113654;27;45447;-68
2022/01/28 11:08:51;;;;;;;;;32.00;24.50;;;;;;;;5096399;27;45522;-68
2022/01/28 11:11:16;;;;;;;;;23.00;17.00;;;;;;;;5113816;27;45399;-67
2022/01/28 11:13:42;;;;;;;;;33.00;28.25;;;;;;;;5113571;27;46064;-67
2022/01/28 11:16:08;;;;;;;;;37.25;28.75;;;;;;;;5113733;27;45229;-67
2022/01/28 11:18:33;;;;;;;;;24.25;23.00;;;;;;;;5114497;27;45472;-67
2022/01/28 11:21:05;;;;;;;;;29.00;25.50;;;;;;;;5113938;27;46490;-68
2022/01/28 11:23:48;;;;;;;;;28.75;25.00;;;;;;;;5114334;27;45262;-67
2022/01/28 11:26:16;;;;;;;;;28.25;23.50;;;;;;;;5113441;27;45366;-67
2022/01/28 11:28:44;;;;;;;;;36.25;26.75;;;;;;;;5113559;27;45485;-66
2022/01/28 11:31:10;;;;;;;;;32.75;31.00;;;;;;;;5112750;27;45484;-67
2022/01/28 11:33:47;;;;;;;;;32.50;28.50;;;;;;;;5114137;27;45350;-67
2022/01/28 11:36:13;;;;;;;;;35.75;31.25;;;;;;;;5113974;27;45259;-67
2022/01/28 11:38:44;;;;;;;;;31.50;24.00;;;;;;;;5114350;27;45419;-69
2022/01/28 11:41:14;;;;;;;;;28.50;26.25;;;;;;;;5113193;27;45393;-68
2022/01/28 11:43:44;;;;;;;;;30.25;25.75;;;;;;;;5112815;27;45605;-68
2022/01/28 11:46:10;;;;;;;;;22.75;19.75;;;;;;;;5113168;27;45306;-68
2022/01/28 11:48:51;;;;;;;;;23.25;15.50;;;;;;;;5113991;27;45382;-68
2022/01/28 11:51:16;;;;;;;;;35.75;29.25;;;;;;;;5113344;27;47203;-69
2022/01/28 11:53:52;;;;;;;;;28.50;23.00;;;;;;;;5114132;27;45433;-68
2022/01/28 11:56:17;;;;;;;;;29.00;23.75;;;;;;;;5114069;27;45405;-68
2022/01/28 11:58:59;;;;;;;;;28.50;25.75;;;;;;;;5113247;27;45369;-68
2022/01/28 12:01:25;;;;;;;;;27.00;24.75;;;;;;;;5114078;27;45525;-67
2022/01/28 12:03:51;;;;;;;;;24.50;22.50;;;;;;;;5113391;27;45800;-67
2022/01/28 12:06:19;;;;;;;;;28.50;21.25;;;;;;;;5115773;27;45768;-67
2022/01/28 12:08:46;;;;;;;;;33.00;30.25;;;;;;;;5113576;27;45471;-67
2022/01/28 12:11:13;;;;;;;;;24.00;19.25;;;;;;;;5112721;27;45418;-67
2022/01/28 12:14:00;;;;;;;;;25.00;24.75;;;;;;;;5112757;27;45362;-69
2022/01/28 12:16:27;;;;;;;;;27.00;24.75;;;;;;;;5113372;27;45238;-67
2022/01/28 12:18:55;;;;;;;;;24.00;21.25;;;;;;;;5113662;27;45501;-67
2022/01/28 12:21:25;;;;;;;;;28.50;25.50;;;;;;;;5099941;27;46158;-68
2022/01/28 12:23:52;;;;;;;;;32.25;27.25;;;;;;;;5112325;27;45289;-67
2022/01/28 12:26:19;;;;;;;;;24.75;20.00;;;;;;;;5116925;27;45525;-68
2022/01/28 12:28:46;;;;;;;;;33.00;27.25;;;;;;;;5117378;27;45462;-67
2022/01/28 12:31:16;;;;;;;;;25.75;21.00;;;;;;;;5116550;27;46056;-68
2022/01/28 12:33:43;;;;;;;;;28.50;22.75;;;;;;;;5117019;27;45569;-68
2022/01/28 12:36:08;;;;;;;;;28.00;25.25;;;;;;;;5117269;27;47967;-67
2022/01/28 12:38:36;;;;;;;;;23.50;22.00;;;;;;;;5117395;27;45332;-67
2022/01/28 12:41:07;;;;;;;;;26.25;23.00;;;;;;;;5115801;27;46206;-67
2022/01/28 12:43:33;;;;;;;;;30.50;29.00;;;;;;;;5116361;27;45474;-67
2022/01/28 12:46:03;;;;;;;;;25.50;22.00;;;;;;;;5116300;27;45447;-67
2022/01/28 12:48:28;;;;;;;;;26.00;21.75;;;;;;;;5116048;27;45727;-67
2022/01/28 12:50:54;;;;;;;;;25.50;21.75;;;;;;;;5115537;27;46401;-68
2022/01/28 12:53:28;;;;;;;;;28.50;24.50;;;;;;;;5116123;27;45395;-67
2022/01/28 12:55:53;;;;;;;;;26.25;24.25;;;;;;;;5115160;27;45362;-68
2022/01/28 12:58:29;;;;;;;;;25.75;23.75;;;;;;;;5115801;27;45527;-68
2022/01/28 13:00:54;;;;;;;;;41.25;31.50;;;;;;;;5115667;27;46589;-67
2022/01/28 13:03:24;;;;;;;;;36.75;26.75;;;;;;;;5116757;27;45396;-67
2022/01/28 13:05:56;;;;;;;;;30.25;26.50;;;;;;;;5113661;27;45345;-66
2022/01/28 13:08:27;;;;;;;;;38.75;32.25;;;;;;;;5116276;27;45610;-67
2022/01/28 13:10:53;;;;;;;;;49.75;39.25;;;;;;;;5116808;27;47282;-66
2022/01/28 13:13:19;;;;;;;;;32.50;27.75;;;;;;;;5116669;27;45344;-66
2022/01/28 13:15:52;;;;;;;;;28.25;25.25;;;;;;;;5117069;27;45483;-66
2022/01/28 13:18:17;;;;;;;;;28.25;25.00;;;;;;;;5117240;27;45502;-65
2022/01/28 13:20:43;;;;;;;;;31.25;28.50;;;;;;;;5117487;27;45509;-65
2022/01/28 13:23:09;;;;;;;;;24.00;22.50;;;;;;;;5116336;27;45492;-65
2022/01/28 13:25:34;;;;;;;;;31.00;25.00;;;;;;;;5116785;27;45479;-66
2022/01/28 13:28:03;;;;;;;;;34.00;28.25;;;;;;;;5116892;27;45543;-67
2022/01/28 13:30:33;;;;;;;;;28.25;24.00;;;;;;;;5116039;27;46776;-66
2022/01/28 13:33:03;;;;;;;;;16.25;13.75;;;;;;;;5115333;27;45520;-65
2022/01/28 13:35:28;;;;;;;;;33.50;27.25;;;;;;;;5115971;27;45397;-64
2022/01/28 13:37:56;;;;;;;;;27.50;23.25;;;;;;;;5115654;27;45416;-66
2022/01/28 13:40:21;;;;;;;;;31.00;27.25;;;;;;;;5115791;27;46280;-65
2022/01/28 13:42:55;;;;;;;;;31.50;28.00;;;;;;;;5115875;27;45529;-65
2022/01/28 13:45:27;;;;;;;;;27.75;25.00;;;;;;;;5115865;27;46203;-64
2022/01/28 13:47:53;;;;;;;;;27.00;23.00;;;;;;;;5112523;27;45630;-64
2022/01/28 13:50:42;;;;;;;;;28.00;22.50;;;;;;;;5115786;27;46168;-64
2022/01/28 13:53:32;;;;;;;;;23.75;21.25;;;;;;;;5115464;27;45553;-65
2022/01/28 13:56:01;;;;;;;;;20.50;17.25;;;;;;;;5115350;27;45541;-65
2022/01/28 13:58:26;;;;;;;;;27.00;20.25;;;;;;;;5114859;27;45455;-67
2022/01/28 14:00:52;;;;;;;;;26.75;23.50;;;;;;;;5115414;27;46108;-64
2022/01/28 14:03:18;;;;;;;;;20.00;18.50;;;;;;;;5116546;27;45537;-65
2022/01/28 14:05:52;;;;;;;;;28.50;24.25;;;;;;;;5116710;27;45415;-65
2022/01/28 14:08:36;;;;;;;;;25.75;23.50;;;;;;;;5115623;27;46090;-66
2022/01/28 14:11:21;;;;;;;;;29.25;24.25;;;;;;;;5115637;27;46458;-65
2022/01/28 14:14:07;;;;;;;;;24.00;21.25;;;;;;;;5115645;27;45381;-70
2022/01/28 14:16:32;;;;;;;;;32.50;25.25;;;;;;;;5115885;27;45519;-64
2022/01/28 14:18:58;;;;;;;;;27.00;26.75;;;;;;;;5116073;27;45444;-66
2022/01/28 14:21:23;;;;;;;;;28.75;23.00;;;;;;;;5115100;27;45256;-66
2022/01/28 14:23:49;;;;;;;;;21.75;20.50;;;;;;;;5116303;27;45483;-65
2022/01/28 14:26:16;;;;;;;;;26.75;22.00;;;;;;;;5115849;27;45332;-64
2022/01/28 14:29:19;;;;;;;;;23.75;23.25;;;;;;;;5115338;27;45396;-64
2022/01/28 14:31:29;;;;;;;;;32.50;26.50;;;;;;;;5114446;27;45744;-68
2022/01/28 14:33:55;;;;;;;;;21.75;20.75;;;;;;;;5114414;27;45611;-67
2022/01/28 14:36:20;;;;;;;;;25.00;24.75;;;;;;;;5114341;27;45425;-66
2022/01/28 14:38:46;;;;;;;;;24.50;23.00;;;;;;;;5115007;27;45447;-67
2022/01/28 14:41:14;;;;;;;;;18.75;17.25;;;;;;;;5114158;27;47031;-69
2022/01/28 14:43:39;;;;;;;;;27.25;24.50;;;;;;;;5094099;27;45544;-66
2022/01/28 14:46:04;;;;;;;;;27.75;23.75;;;;;;;;5113892;27;45366;-68
2022/01/28 14:48:30;;;;;;;;;27.25;24.50;;;;;;;;5114877;27;45503;-70
2022/01/28 14:50:55;;;;;;;;;29.50;25.00;;;;;;;;5114438;27;46192;-68
2022/01/28 14:53:20;;;;;;;;;23.25;22.25;;;;;;;;5115112;27;45479;-69
2022/01/28 14:55:45;;;;;;;;;23.75;22.00;;;;;;;;5115571;27;45241;-69
2022/01/28 14:58:11;;;;;;;;;28.00;25.50;;;;;;;;5115257;27;45372;-69
2022/01/28 15:00:36;;;;;;;;;20.75;20.00;;;;;;;;5114521;27;46153;-69
2022/01/28 15:03:02;;;;;;;;;23.00;19.75;;;;;;;;5114685;27;45364;-69
2022/01/28 15:05:29;;;;;;;;;16.75;13.00;;;;;;;;5114221;27;45465;-69
2022/01/28 15:07:54;;;;;;;;;14.75;13.50;;;;;;;;5113644;27;45364;-68
2022/01/28 15:10:26;;;;;;;;;15.50;10.50;;;;;;;;5113676;27;46042;-68
2022/01/28 15:12:51;;;;;;;;;23.25;20.75;;;;;;;;5113785;27;45400;-68
2022/01/28 15:15:17;;;;;;;;;23.00;19.50;;;;;;;;5114365;27;45814;-68
2022/01/28 15:17:42;;;;;;;;;22.25;22.25;;;;;;;;5114949;27;45361;-66
2022/01/28 15:20:08;;;;;;;;;22.00;19.50;;;;;;;;5113420;27;45354;-67
2022/01/28 15:22:33;;;;;;;;;23.75;20.75;;;;;;;;5113270;27;45430;-67
2022/01/28 15:24:58;;;;;;;;;26.50;23.50;;;;;;;;5113012;27;45484;-66
2022/01/28 15:27:25;;;;;;;;;28.25;26.50;;;;;;;;5113323;27;45435;-69
2022/01/28 15:30:00;;;;;;;;;31.00;28.25;;;;;;;;5114267;27;45394;-67
2022/01/28 15:37:53;;;;;;;;;19.25;19.25;;;;;;;;5113838;27;45336;-67
2022/01/28 15:40:19;;;;;;;;;25.25;21.75;;;;;;;;5114108;27;46110;-67
2022/01/28 15:42:46;;;;;;;;;20.75;20.25;;;;;;;;5113528;27;45758;-69
2022/01/28 15:45:11;;;;;;;;;23.50;21.25;;;;;;;;5114104;27;46620;-68
2022/01/28 15:47:36;;;;;;;;;24.75;24.75;;;;;;;;5094250;27;45473;-68
2022/01/28 15:50:02;;;;;;;;;22.75;21.00;;;;;;;;5092773;27;46116;-67
2022/01/28 15:52:28;;;;;;;;;25.50;20.50;;;;;;;;5092577;27;45584;-68
2022/01/28 15:54:53;;;;;;;;;17.00;17.00;;;;;;;;5099782;27;45481;-68
2022/01/28 15:57:19;;;;;;;;;26.00;20.25;;;;;;;;5100390;27;45303;-68
2022/01/28 15:59:44;;;;;;;;;19.00;16.75;;;;;;;;5099883;27;46314;-68
2022/01/28 16:02:09;;;;;;;;;17.75;14.75;;;;;;;;5099181;27;45353;-68
2022/01/28 16:04:38;;;;;;;;;24.50;20.75;;;;;;;;5099812;27;45379;-68
2022/01/28 16:07:04;;;;;;;;;24.00;20.00;;;;;;;;5099298;27;45247;-67